sensor_id;sensor_type;location;lat;lon;timestamp;pressure;altitude;pressure_sealevel;temperature;humidity
75788;BME280;64406;50.024;14.492;2023-03-31T00:01:34;97436.03;;;7.01;83.00
75788;BME280;64406;50.024;14.492;2023-03-31T00:04:00;97440.06;;;6.93;83.82
75788;BME280;64406;50.024;14.492;2023-03-31T00:06:34;97439.03;;;6.89;83.99
75788;BME280;64406;50.024;14.492;2023-03-31T00:09:15;97421.66;;;6.81;83.76
75788;BME280;64406;50.024;14.492;2023-03-31T00:11:50;97423.00;;;6.84;83.52
75788;BME280;64406;50.024;14.492;2023-03-31T00:14:18;97414.16;;;6.89;83.79
75788;BME280;64406;50.024;14.492;2023-03-31T00:16:44;97409.59;;;6.84;83.50
75788;BME280;64406;50.024;14.492;2023-03-31T00:19:11;97406.41;;;6.87;83.70
75788;BME280;64406;50.024;14.492;2023-03-31T00:21:43;97373.59;;;6.61;83.80
75788;BME280;64406;50.024;14.492;2023-03-31T00:24:11;97405.03;;;6.85;84.04
75788;BME280;64406;50.024;14.492;2023-03-31T00:26:37;97404.03;;;6.70;84.05
75788;BME280;64406;50.024;14.492;2023-03-31T00:29:05;97407.50;;;6.71;84.58
75788;BME280;64406;50.024;14.492;2023-03-31T00:31:31;97406.19;;;6.68;84.71
75788;BME280;64406;50.024;14.492;2023-03-31T00:33:57;97378.38;;;6.59;84.50
75788;BME280;64406;50.024;14.492;2023-03-31T00:36:24;97398.38;;;6.82;84.54
75788;BME280;64406;50.024;14.492;2023-03-31T00:38:57;97397.50;;;6.92;84.35
75788;BME280;64406;50.024;14.492;2023-03-31T00:41:24;97392.47;;;6.80;84.54
75788;BME280;64406;50.024;14.492;2023-03-31T00:44:05;97394.41;;;6.69;85.24
75788;BME280;64406;50.024;14.492;2023-03-31T00:46:53;97380.53;;;6.57;84.82
75788;BME280;64406;50.024;14.492;2023-03-31T00:49:41;97393.91;;;6.62;85.76
75788;BME280;64406;50.024;14.492;2023-03-31T00:52:16;97383.50;;;6.61;85.68
75788;BME280;64406;50.024;14.492;2023-03-31T00:54:49;97383.22;;;6.52;85.75
75788;BME280;64406;50.024;14.492;2023-03-31T00:57:16;97374.41;;;6.46;85.92
75788;BME280;64406;50.024;14.492;2023-03-31T00:59:49;97365.34;;;6.42;86.44
75788;BME280;64406;50.024;14.492;2023-03-31T01:02:17;97360.81;;;6.43;86.75
75788;BME280;64406;50.024;14.492;2023-03-31T01:04:56;97342.88;;;6.38;86.01
75788;BME280;64406;50.024;14.492;2023-03-31T01:07:43;97359.44;;;6.50;86.11
75788;BME280;64406;50.024;14.492;2023-03-31T01:10:11;97347.91;;;6.55;85.58
75788;BME280;64406;50.024;14.492;2023-03-31T01:12:38;97334.25;;;6.62;85.72
75788;BME280;64406;50.024;14.492;2023-03-31T01:15:06;97331.00;;;6.65;85.15
75788;BME280;64406;50.024;14.492;2023-03-31T01:17:32;97336.03;;;6.76;85.11
75788;BME280;64406;50.024;14.492;2023-03-31T01:31:57;97311.06;;;6.91;84.34
75788;BME280;64406;50.024;14.492;2023-03-31T01:34:49;97304.88;;;6.96;84.49
75788;BME280;64406;50.024;14.492;2023-03-31T01:37:46;97302.97;;;7.01;84.03
75788;BME280;64406;50.024;14.492;2023-03-31T01:43:45;97287.59;;;7.17;83.08
75788;BME280;64406;50.024;14.492;2023-03-31T01:46:27;97291.09;;;7.13;83.13
75788;BME280;64406;50.024;14.492;2023-03-31T01:49:04;97288.19;;;7.09;83.79
75788;BME280;64406;50.024;14.492;2023-03-31T01:59:18;97268.25;;;6.86;84.21
75788;BME280;64406;50.024;14.492;2023-03-31T02:01:52;97274.47;;;6.76;84.76
75788;BME280;64406;50.024;14.492;2023-03-31T02:04:23;97253.41;;;6.65;84.90
75788;BME280;64406;50.024;14.492;2023-03-31T02:06:54;97247.81;;;6.61;84.70
75788;BME280;64406;50.024;14.492;2023-03-31T02:09:27;97230.50;;;6.48;85.11
75788;BME280;64406;50.024;14.492;2023-03-31T02:11:55;97245.41;;;6.60;85.35
75788;BME280;64406;50.024;14.492;2023-03-31T02:14:25;97236.09;;;6.47;85.41
75788;BME280;64406;50.024;14.492;2023-03-31T02:16:57;97207.84;;;6.36;84.91
75788;BME280;64406;50.024;14.492;2023-03-31T02:19:26;97236.84;;;6.63;84.88
75788;BME280;64406;50.024;14.492;2023-03-31T02:21:55;97224.75;;;6.70;84.56
75788;BME280;64406;50.024;14.492;2023-03-31T02:24:24;97241.00;;;6.79;84.23
75788;BME280;64406;50.024;14.492;2023-03-31T02:26:55;97234.03;;;6.78;84.31
75788;BME280;64406;50.024;14.492;2023-03-31T02:29:25;97238.06;;;6.80;84.19
75788;BME280;64406;50.024;14.492;2023-03-31T02:32:04;97239.16;;;6.74;84.19
75788;BME280;64406;50.024;14.492;2023-03-31T02:34:33;97237.53;;;6.78;83.77
75788;BME280;64406;50.024;14.492;2023-03-31T02:36:59;97242.66;;;6.70;84.37
75788;BME280;64406;50.024;14.492;2023-03-31T02:39:29;97241.59;;;6.71;83.95
75788;BME280;64406;50.024;14.492;2023-03-31T02:41:56;97211.78;;;6.48;84.12
75788;BME280;64406;50.024;14.492;2023-03-31T02:44:23;97233.13;;;6.53;84.99
75788;BME280;64406;50.024;14.492;2023-03-31T02:46:49;97228.66;;;6.44;85.48
75788;BME280;64406;50.024;14.492;2023-03-31T02:49:15;97184.69;;;6.16;85.40
75788;BME280;64406;50.024;14.492;2023-03-31T03:03:40;97221.94;;;6.46;85.27
75788;BME280;64406;50.024;14.492;2023-03-31T03:17:25;97214.91;;;6.61;84.67
75788;BME280;64406;50.024;14.492;2023-03-31T03:19:59;97213.78;;;6.67;83.83
75788;BME280;64406;50.024;14.492;2023-03-31T03:22:25;97206.28;;;6.69;83.90
75788;BME280;64406;50.024;14.492;2023-03-31T03:24:51;97193.38;;;6.76;83.15
75788;BME280;64406;50.024;14.492;2023-03-31T03:27:17;97200.53;;;6.86;83.05
75788;BME280;64406;50.024;14.492;2023-03-31T03:29:43;97200.78;;;6.89;82.55
75788;BME280;64406;50.024;14.492;2023-03-31T03:32:09;97206.34;;;6.93;83.00
75788;BME280;64406;50.024;14.492;2023-03-31T03:34:36;97179.97;;;6.81;82.80
75788;BME280;64406;50.024;14.492;2023-03-31T03:37:02;97198.31;;;6.93;82.79
75788;BME280;64406;50.024;14.492;2023-03-31T03:39:27;97187.41;;;6.89;82.60
75788;BME280;64406;50.024;14.492;2023-03-31T03:41:53;97188.97;;;6.95;82.97
75788;BME280;64406;50.024;14.492;2023-03-31T03:44:19;97164.72;;;6.81;82.61
75788;BME280;64406;50.024;14.492;2023-03-31T03:46:45;97163.59;;;6.88;82.78
75788;BME280;64406;50.024;14.492;2023-03-31T03:49:10;97162.50;;;6.89;82.61
75788;BME280;64406;50.024;14.492;2023-03-31T03:51:36;97156.53;;;6.97;82.47
75788;BME280;64406;50.024;14.492;2023-03-31T03:54:02;97157.91;;;6.94;82.11
75788;BME280;64406;50.024;14.492;2023-03-31T03:56:27;97145.84;;;6.97;82.24
75788;BME280;64406;50.024;14.492;2023-03-31T03:58:53;97142.09;;;6.93;82.31
75788;BME280;64406;50.024;14.492;2023-03-31T04:01:19;97130.25;;;6.75;83.12
75788;BME280;64406;50.024;14.492;2023-03-31T04:03:45;97124.34;;;6.73;82.58
75788;BME280;64406;50.024;14.492;2023-03-31T04:06:11;97116.66;;;6.66;83.31
75788;BME280;64406;50.024;14.492;2023-03-31T04:08:37;97115.59;;;6.67;82.97
75788;BME280;64406;50.024;14.492;2023-03-31T04:11:03;97123.63;;;6.67;83.02
75788;BME280;64406;50.024;14.492;2023-03-31T04:13:35;97115.16;;;6.55;83.41
75788;BME280;64406;50.024;14.492;2023-03-31T04:16:00;97114.03;;;6.61;82.90
75788;BME280;64406;50.024;14.492;2023-03-31T04:18:26;97111.91;;;6.58;83.08
75788;BME280;64406;50.024;14.492;2023-03-31T04:20:52;97123.66;;;6.62;83.44
75788;BME280;64406;50.024;14.492;2023-03-31T04:23:34;97116.97;;;6.60;83.85
75788;BME280;64406;50.024;14.492;2023-03-31T04:26:08;97103.00;;;6.68;83.39
75788;BME280;64406;50.024;14.492;2023-03-31T04:28:35;97087.50;;;6.65;83.26
75788;BME280;64406;50.024;14.492;2023-03-31T04:31:02;97088.84;;;6.67;82.66
75788;BME280;64406;50.024;14.492;2023-03-31T04:33:31;97089.06;;;6.71;82.77
75788;BME280;64406;50.024;14.492;2023-03-31T04:36:07;97091.19;;;6.74;83.12
75788;BME280;64406;50.024;14.492;2023-03-31T04:38:46;97073.69;;;6.52;83.11
75788;BME280;64406;50.024;14.492;2023-03-31T04:41:13;97077.47;;;6.46;83.58
75788;BME280;64406;50.024;14.492;2023-03-31T04:43:40;97092.41;;;6.52;83.97
75788;BME280;64406;50.024;14.492;2023-03-31T04:46:06;97092.19;;;6.49;84.19
75788;BME280;64406;50.024;14.492;2023-03-31T04:48:32;97066.06;;;6.41;84.02
75788;BME280;64406;50.024;14.492;2023-03-31T04:50:58;97079.28;;;6.56;84.05
75788;BME280;64406;50.024;14.492;2023-03-31T04:53:23;97059.13;;;6.35;83.54
75788;BME280;64406;50.024;14.492;2023-03-31T04:55:51;97090.03;;;6.51;84.40
75788;BME280;64406;50.024;14.492;2023-03-31T04:58:16;97080.41;;;6.50;84.25
75788;BME280;64406;50.024;14.492;2023-03-31T05:00:43;97084.72;;;6.46;84.45
75788;BME280;64406;50.024;14.492;2023-03-31T05:03:08;97067.38;;;6.38;84.79
75788;BME280;64406;50.024;14.492;2023-03-31T05:05:35;97058.59;;;6.33;85.00
75788;BME280;64406;50.024;14.492;2023-03-31T05:08:01;97050.19;;;6.49;83.97
75788;BME280;64406;50.024;14.492;2023-03-31T05:10:28;97021.91;;;6.38;83.97
75788;BME280;64406;50.024;14.492;2023-03-31T05:12:53;97058.19;;;6.78;83.94
75788;BME280;64406;50.024;14.492;2023-03-31T05:15:20;97050.72;;;6.80;83.87
75788;BME280;64406;50.024;14.492;2023-03-31T05:17:45;97042.34;;;6.87;83.17
75788;BME280;64406;50.024;14.492;2023-03-31T05:20:11;97052.38;;;7.00;82.87
75788;BME280;64406;50.024;14.492;2023-03-31T05:22:39;97047.19;;;7.09;82.46
75788;BME280;64406;50.024;14.492;2023-03-31T05:25:07;97026.59;;;7.04;82.73
75788;BME280;64406;50.024;14.492;2023-03-31T05:27:33;97031.34;;;7.13;82.26
75788;BME280;64406;50.024;14.492;2023-03-31T05:29:59;97016.88;;;7.14;81.96
75788;BME280;64406;50.024;14.492;2023-03-31T05:32:25;97012.03;;;7.16;82.33
75788;BME280;64406;50.024;14.492;2023-03-31T05:34:52;97019.81;;;7.12;82.41
75788;BME280;64406;50.024;14.492;2023-03-31T05:37:22;97003.88;;;7.02;82.98
75788;BME280;64406;50.024;14.492;2023-03-31T05:39:49;97006.53;;;7.07;82.84
75788;BME280;64406;50.024;14.492;2023-03-31T05:42:15;97005.53;;;6.98;83.35
75788;BME280;64406;50.024;14.492;2023-03-31T05:44:42;96993.91;;;6.84;83.81
75788;BME280;64406;50.024;14.492;2023-03-31T05:47:09;96989.19;;;6.75;83.39
75788;BME280;64406;50.024;14.492;2023-03-31T05:49:34;96984.06;;;6.79;83.70
75788;BME280;64406;50.024;14.492;2023-03-31T05:52:00;96979.63;;;6.69;84.36
75788;BME280;64406;50.024;14.492;2023-03-31T05:54:29;96987.59;;;6.74;84.29
75788;BME280;64406;50.024;14.492;2023-03-31T05:56:55;96961.34;;;6.76;84.27
75788;BME280;64406;50.024;14.492;2023-03-31T05:59:21;96976.94;;;6.93;83.08
75788;BME280;64406;50.024;14.492;2023-03-31T06:01:46;96973.44;;;7.17;82.74
75788;BME280;64406;50.024;14.492;2023-03-31T06:04:12;96960.47;;;7.05;82.69
75788;BME280;64406;50.024;14.492;2023-03-31T06:06:38;96966.06;;;7.08;82.61
75788;BME280;64406;50.024;14.492;2023-03-31T06:09:04;96962.28;;;7.09;83.02
75788;BME280;64406;50.024;14.492;2023-03-31T06:11:30;96969.75;;;7.13;82.69
75788;BME280;64406;50.024;14.492;2023-03-31T06:13:56;96960.28;;;7.20;82.56
75788;BME280;64406;50.024;14.492;2023-03-31T06:16:22;96962.63;;;7.27;82.60
75788;BME280;64406;50.024;14.492;2023-03-31T06:18:47;96959.06;;;7.31;81.68
75788;BME280;64406;50.024;14.492;2023-03-31T06:21:16;96955.41;;;7.46;82.09
75788;BME280;64406;50.024;14.492;2023-03-31T06:23:43;96960.53;;;7.61;81.52
75788;BME280;64406;50.024;14.492;2023-03-31T06:26:11;96946.50;;;7.83;79.79
75788;BME280;64406;50.024;14.492;2023-03-31T06:28:38;96943.28;;;8.19;79.90
75788;BME280;64406;50.024;14.492;2023-03-31T06:31:12;96920.69;;;8.53;76.98
75788;BME280;64406;50.024;14.492;2023-03-31T06:33:39;96951.63;;;9.05;76.63
75788;BME280;64406;50.024;14.492;2023-03-31T06:36:07;96946.50;;;9.17;75.53
75788;BME280;64406;50.024;14.492;2023-03-31T06:38:34;96939.56;;;9.16;74.96
75788;BME280;64406;50.024;14.492;2023-03-31T06:41:00;96943.44;;;9.10;74.78
75788;BME280;64406;50.024;14.492;2023-03-31T06:43:26;96943.03;;;9.17;74.55
75788;BME280;64406;50.024;14.492;2023-03-31T06:45:53;96943.41;;;9.24;74.03
75788;BME280;64406;50.024;14.492;2023-03-31T06:48:22;96944.25;;;9.24;74.14
75788;BME280;64406;50.024;14.492;2023-03-31T06:50:48;96942.44;;;9.20;73.97
75788;BME280;64406;50.024;14.492;2023-03-31T06:53:14;96961.44;;;9.23;74.39
75788;BME280;64406;50.024;14.492;2023-03-31T06:55:42;96951.19;;;9.25;74.52
75788;BME280;64406;50.024;14.492;2023-03-31T06:58:08;96953.28;;;9.29;73.70
75788;BME280;64406;50.024;14.492;2023-03-31T07:00:44;96950.41;;;9.25;73.65
75788;BME280;64406;50.024;14.492;2023-03-31T07:03:17;96935.19;;;9.20;73.61
75788;BME280;64406;50.024;14.492;2023-03-31T07:05:54;96934.47;;;9.29;73.40
75788;BME280;64406;50.024;14.492;2023-03-31T07:08:21;96928.00;;;9.16;73.70
75788;BME280;64406;50.024;14.492;2023-03-31T07:10:48;96932.88;;;9.27;74.21
75788;BME280;64406;50.024;14.492;2023-03-31T07:13:15;96927.41;;;9.33;73.72
75788;BME280;64406;50.024;14.492;2023-03-31T07:15:43;96927.97;;;9.30;74.19
75788;BME280;64406;50.024;14.492;2023-03-31T07:18:09;96932.66;;;9.38;73.77
75788;BME280;64406;50.024;14.492;2023-03-31T07:20:34;96918.50;;;9.46;73.67
75788;BME280;64406;50.024;14.492;2023-03-31T07:23:03;96930.22;;;9.50;73.29
75788;BME280;64406;50.024;14.492;2023-03-31T07:25:29;96915.50;;;9.47;73.36
75788;BME280;64406;50.024;14.492;2023-03-31T07:27:55;96923.34;;;9.58;73.65
75788;BME280;64406;50.024;14.492;2023-03-31T07:30:21;96925.34;;;9.52;72.75
75788;BME280;64406;50.024;14.492;2023-03-31T07:32:49;96918.19;;;9.47;73.48
75788;BME280;64406;50.024;14.492;2023-03-31T07:35:19;96920.09;;;9.47;73.14
75788;BME280;64406;50.024;14.492;2023-03-31T07:37:47;96889.25;;;9.44;72.22
75788;BME280;64406;50.024;14.492;2023-03-31T07:40:19;96908.38;;;9.65;72.14
75788;BME280;64406;50.024;14.492;2023-03-31T07:42:48;96892.63;;;9.72;72.25
75788;BME280;64406;50.024;14.492;2023-03-31T07:45:16;96903.75;;;9.79;72.08
75788;BME280;64406;50.024;14.492;2023-03-31T07:47:43;96888.38;;;10.02;71.29
75788;BME280;64406;50.024;14.492;2023-03-31T07:50:11;96900.78;;;10.12;71.83
75788;BME280;64406;50.024;14.492;2023-03-31T07:52:37;96890.06;;;10.21;71.09
75788;BME280;64406;50.024;14.492;2023-03-31T07:55:04;96881.13;;;10.34;70.07
75788;BME280;64406;50.024;14.492;2023-03-31T07:57:30;96884.25;;;10.27;69.90
75788;BME280;64406;50.024;14.492;2023-03-31T07:59:58;96873.28;;;10.46;69.55
75788;BME280;64406;50.024;14.492;2023-03-31T08:02:24;96860.34;;;10.57;69.15
75788;BME280;64406;50.024;14.492;2023-03-31T08:04:50;96854.31;;;10.69;68.55
75788;BME280;64406;50.024;14.492;2023-03-31T08:07:16;96859.56;;;10.65;68.87
75788;BME280;64406;50.024;14.492;2023-03-31T08:09:44;96876.06;;;10.72;69.05
75788;BME280;64406;50.024;14.492;2023-03-31T08:12:11;96864.81;;;10.70;68.89
75788;BME280;64406;50.024;14.492;2023-03-31T08:14:37;96876.91;;;10.90;68.22
75788;BME280;64406;50.024;14.492;2023-03-31T08:17:03;96867.19;;;10.72;68.65
75788;BME280;64406;50.024;14.492;2023-03-31T08:19:29;96867.19;;;10.72;68.88
75788;BME280;64406;50.024;14.492;2023-03-31T08:21:55;96867.66;;;10.74;68.44
75788;BME280;64406;50.024;14.492;2023-03-31T08:24:21;96863.38;;;10.73;68.39
75788;BME280;64406;50.024;14.492;2023-03-31T08:26:47;96869.25;;;10.75;69.49
75788;BME280;64406;50.024;14.492;2023-03-31T08:29:13;96858.44;;;10.57;70.52
75788;BME280;64406;50.024;14.492;2023-03-31T08:31:40;96858.09;;;10.50;71.26
75788;BME280;64406;50.024;14.492;2023-03-31T08:34:06;96856.13;;;10.42;71.93
75788;BME280;64406;50.024;14.492;2023-03-31T08:36:35;96852.88;;;10.62;72.60
75788;BME280;64406;50.024;14.492;2023-03-31T08:39:01;96833.53;;;10.43;72.22
75788;BME280;64406;50.024;14.492;2023-03-31T08:44:37;96844.44;;;10.16;73.95
75788;BME280;64406;50.024;14.492;2023-03-31T08:47:17;96850.78;;;10.11;73.93
75788;BME280;64406;50.024;14.492;2023-03-31T08:58:45;96851.53;;;9.80;74.44
75788;BME280;64406;50.024;14.492;2023-03-31T09:07:42;96834.94;;;9.78;73.11
75788;BME280;64406;50.024;14.492;2023-03-31T09:10:36;96825.75;;;9.79;73.07
75788;BME280;64406;50.024;14.492;2023-03-31T09:13:39;96819.81;;;9.69;73.55
75788;BME280;64406;50.024;14.492;2023-03-31T09:16:23;96816.97;;;9.65;73.98
75788;BME280;64406;50.024;14.492;2023-03-31T09:18:59;96806.50;;;9.64;73.22
75788;BME280;64406;50.024;14.492;2023-03-31T09:21:39;96803.97;;;9.59;73.32
75788;BME280;64406;50.024;14.492;2023-03-31T09:27:03;96793.44;;;9.48;73.91
75788;BME280;64406;50.024;14.492;2023-03-31T09:32:20;96774.75;;;9.43;73.53
75788;BME280;64406;50.024;14.492;2023-03-31T09:34:50;96781.78;;;9.53;73.97
75788;BME280;64406;50.024;14.492;2023-03-31T09:37:16;96773.25;;;9.51;73.59
75788;BME280;64406;50.024;14.492;2023-03-31T09:39:42;96773.25;;;9.51;73.56
75788;BME280;64406;50.024;14.492;2023-03-31T09:42:13;96778.66;;;9.60;73.88
75788;BME280;64406;50.024;14.492;2023-03-31T09:44:42;96775.41;;;9.71;73.77
75788;BME280;64406;50.024;14.492;2023-03-31T09:47:41;96764.81;;;9.75;73.83
75788;BME280;64406;50.024;14.492;2023-03-31T09:50:08;96769.88;;;9.76;74.09
75788;BME280;64406;50.024;14.492;2023-03-31T09:52:55;96759.66;;;9.87;74.04
75788;BME280;64406;50.024;14.492;2023-03-31T09:55:26;96750.50;;;9.97;74.29
75788;BME280;64406;50.024;14.492;2023-03-31T09:57:54;96754.97;;;10.01;73.78
75788;BME280;64406;50.024;14.492;2023-03-31T10:00:22;96747.34;;;9.95;73.86
75788;BME280;64406;50.024;14.492;2023-03-31T10:02:52;96747.78;;;9.88;74.79
75788;BME280;64406;50.024;14.492;2023-03-31T10:07:52;96740.25;;;9.68;76.11
75788;BME280;64406;50.024;14.492;2023-03-31T10:10:33;96738.41;;;9.77;75.49
75788;BME280;64406;50.024;14.492;2023-03-31T10:13:00;96727.00;;;9.71;76.29
75788;BME280;64406;50.024;14.492;2023-03-31T10:15:36;96722.69;;;9.62;76.81
75788;BME280;64406;50.024;14.492;2023-03-31T10:18:02;96723.97;;;9.64;76.08
75788;BME280;64406;50.024;14.492;2023-03-31T10:20:36;96725.06;;;9.63;76.82
75788;BME280;64406;50.024;14.492;2023-03-31T10:23:14;96715.09;;;9.64;76.46
75788;BME280;64406;50.024;14.492;2023-03-31T10:25:41;96705.19;;;9.73;76.34
75788;BME280;64406;50.024;14.492;2023-03-31T10:28:14;96702.84;;;9.80;76.29
75788;BME280;64406;50.024;14.492;2023-03-31T10:30:46;96695.78;;;10.01;75.46
75788;BME280;64406;50.024;14.492;2023-03-31T10:33:16;96697.06;;;10.04;75.21
75788;BME280;64406;50.024;14.492;2023-03-31T10:35:43;96689.56;;;10.32;75.93
75788;BME280;64406;50.024;14.492;2023-03-31T10:38:12;96692.50;;;10.13;76.15
75788;BME280;64406;50.024;14.492;2023-03-31T10:40:40;96692.06;;;10.28;75.84
75788;BME280;64406;50.024;14.492;2023-03-31T10:43:19;96677.53;;;10.38;76.01
75788;BME280;64406;50.024;14.492;2023-03-31T10:45:50;96670.50;;;10.20;74.97
75788;BME280;64406;50.024;14.492;2023-03-31T10:48:23;96688.91;;;10.26;77.07
75788;BME280;64406;50.024;14.492;2023-03-31T10:50:49;96683.16;;;10.19;76.65
75788;BME280;64406;50.024;14.492;2023-03-31T10:53:16;96677.69;;;10.24;76.25
75788;BME280;64406;50.024;14.492;2023-03-31T11:01:13;96663.50;;;10.10;76.63
75788;BME280;64406;50.024;14.492;2023-03-31T11:06:21;96670.91;;;9.87;78.15
75788;BME280;64406;50.024;14.492;2023-03-31T11:11:54;96656.00;;;9.72;79.11
75788;BME280;64406;50.024;14.492;2023-03-31T11:17:57;96656.94;;;9.37;80.20
75788;BME280;64406;50.024;14.492;2023-03-31T11:20:20;96659.28;;;9.30;81.05
75788;BME280;64406;50.024;14.492;2023-03-31T11:23:23;96630.59;;;9.16;82.62
75788;BME280;64406;50.024;14.492;2023-03-31T11:26:01;96653.25;;;9.24;83.27
75788;BME280;64406;50.024;14.492;2023-03-31T11:43:23;96626.38;;;8.70;83.29
75788;BME280;64406;50.024;14.492;2023-03-31T11:45:32;96615.38;;;8.72;83.84
75788;BME280;64406;50.024;14.492;2023-03-31T11:48:02;96563.59;;;8.80;84.49
75788;BME280;64406;50.024;14.492;2023-03-31T11:50:34;96494.69;;;9.07;82.66
75788;BME280;64406;50.024;14.492;2023-03-31T11:53:16;96511.69;;;9.42;80.33
75788;BME280;64406;50.024;14.492;2023-03-31T11:55:48;96530.56;;;9.76;79.53
75788;BME280;64406;50.024;14.492;2023-03-31T11:58:37;96556.53;;;10.16;79.77
75788;BME280;64406;50.024;14.492;2023-03-31T12:01:25;96575.25;;;10.47;79.95
75788;BME280;64406;50.024;14.492;2023-03-31T12:06:35;96559.31;;;10.88;77.11
75788;BME280;64406;50.024;14.492;2023-03-31T12:11:52;96552.59;;;10.48;77.06
75788;BME280;64406;50.024;14.492;2023-03-31T12:17:42;96530.13;;;10.35;74.76
75788;BME280;64406;50.024;14.492;2023-03-31T12:20:17;96546.41;;;10.30;75.16
75788;BME280;64406;50.024;14.492;2023-03-31T12:22:47;96535.19;;;10.45;75.65
75788;BME280;64406;50.024;14.492;2023-03-31T12:25:19;96541.00;;;10.56;74.00
75788;BME280;64406;50.024;14.492;2023-03-31T12:27:51;96537.03;;;10.71;74.11
75788;BME280;64406;50.024;14.492;2023-03-31T12:30:30;96534.34;;;10.71;74.13
75788;BME280;64406;50.024;14.492;2023-03-31T12:33:08;96525.94;;;11.19;72.72
75788;BME280;64406;50.024;14.492;2023-03-31T12:38:53;96515.88;;;12.08;70.36
75788;BME280;64406;50.024;14.492;2023-03-31T12:44:36;96515.38;;;12.81;70.10
75788;BME280;64406;50.024;14.492;2023-03-31T12:50:40;96485.97;;;12.92;67.98
75788;BME280;64406;50.024;14.492;2023-03-31T12:55:39;96476.16;;;13.73;66.59
75788;BME280;64406;50.024;14.492;2023-03-31T13:01:08;96486.44;;;13.06;67.12
75788;BME280;64406;50.024;14.492;2023-03-31T13:06:02;96471.59;;;12.42;68.15
75788;BME280;64406;50.024;14.492;2023-03-31T13:09:02;96473.63;;;11.91;70.93
75788;BME280;64406;50.024;14.492;2023-03-31T13:14:15;96460.31;;;11.65;72.37
75788;BME280;64406;50.024;14.492;2023-03-31T13:16:42;96452.03;;;11.50;72.85
75788;BME280;64406;50.024;14.492;2023-03-31T13:19:24;96450.22;;;11.33;73.85
75788;BME280;64406;50.024;14.492;2023-03-31T13:21:54;96446.31;;;11.22;75.48
75788;BME280;64406;50.024;14.492;2023-03-31T13:24:22;96438.84;;;11.27;76.80
75788;BME280;64406;50.024;14.492;2023-03-31T13:26:49;96422.47;;;11.74;76.19
75788;BME280;64406;50.024;14.492;2023-03-31T13:34:27;96389.16;;;13.58;68.89
75788;BME280;64406;50.024;14.492;2023-03-31T13:37:15;96380.06;;;17.25;57.75
75788;BME280;64406;50.024;14.492;2023-03-31T13:39:54;96371.44;;;16.93;57.89
75788;BME280;64406;50.024;14.492;2023-03-31T13:51:57;96351.56;;;15.78;57.75
75788;BME280;64406;50.024;14.492;2023-03-31T14:06:22;96375.59;;;10.36;72.41
75788;BME280;64406;50.024;14.492;2023-03-31T14:08:53;96478.53;;;7.32;87.12
75788;BME280;64406;50.024;14.492;2023-03-31T14:11:28;96465.03;;;7.38;89.42
75788;BME280;64406;50.024;14.492;2023-03-31T14:16:40;96439.50;;;6.90;88.30
75788;BME280;64406;50.024;14.492;2023-03-31T14:25:31;96451.41;;;6.70;90.42
75788;BME280;64406;50.024;14.492;2023-03-31T14:39:00;96443.38;;;6.84;89.94
75788;BME280;64406;50.024;14.492;2023-03-31T14:41:27;96433.38;;;6.90;88.56
75788;BME280;64406;50.024;14.492;2023-03-31T14:44:00;96436.34;;;6.88;87.72
75788;BME280;64406;50.024;14.492;2023-03-31T14:46:29;96430.59;;;6.81;88.05
75788;BME280;64406;50.024;14.492;2023-03-31T14:48:57;96435.66;;;6.82;88.93
75788;BME280;64406;50.024;14.492;2023-03-31T14:51:27;96417.50;;;6.93;88.72
75788;BME280;64406;50.024;14.492;2023-03-31T14:53:58;96411.25;;;6.98;88.07
75788;BME280;64406;50.024;14.492;2023-03-31T14:56:33;96411.63;;;7.05;88.29
75788;BME280;64406;50.024;14.492;2023-03-31T14:59:03;96405.19;;;7.06;87.77
75788;BME280;64406;50.024;14.492;2023-03-31T15:01:33;96411.63;;;7.05;87.06
75788;BME280;64406;50.024;14.492;2023-03-31T15:04:23;96415.03;;;6.97;87.39
75788;BME280;64406;50.024;14.492;2023-03-31T15:06:50;96401.94;;;6.95;87.34
75788;BME280;64406;50.024;14.492;2023-03-31T15:09:21;96383.50;;;6.94;86.32
75788;BME280;64406;50.024;14.492;2023-03-31T15:11:53;96392.13;;;6.91;86.76
75788;BME280;64406;50.024;14.492;2023-03-31T15:14:20;96369.72;;;6.87;86.63
75788;BME280;64406;50.024;14.492;2023-03-31T15:16:49;96349.53;;;6.80;87.08
75788;BME280;64406;50.024;14.492;2023-03-31T15:21:40;96332.50;;;6.76;87.67
75788;BME280;64406;50.024;14.492;2023-03-31T15:24:12;96333.75;;;6.79;86.46
75788;BME280;64406;50.024;14.492;2023-03-31T15:29:44;96340.47;;;6.90;86.86
75788;BME280;64406;50.024;14.492;2023-03-31T15:32:36;96339.84;;;7.07;86.43
75788;BME280;64406;50.024;14.492;2023-03-31T15:35:03;96334.72;;;7.33;85.57
75788;BME280;64406;50.024;14.492;2023-03-31T15:37:43;96335.09;;;7.71;85.12
75788;BME280;64406;50.024;14.492;2023-03-31T15:43:07;96340.94;;;9.62;77.80
75788;BME280;64406;50.024;14.492;2023-03-31T15:45:48;96332.38;;;9.77;77.44
75788;BME280;64406;50.024;14.492;2023-03-31T15:48:34;96340.63;;;9.72;76.28
75788;BME280;64406;50.024;14.492;2023-03-31T15:51:16;96334.34;;;9.33;75.77
75788;BME280;64406;50.024;14.492;2023-03-31T15:53:46;96347.41;;;8.83;77.56
75788;BME280;64406;50.024;14.492;2023-03-31T15:56:30;96345.81;;;8.73;77.94
75788;BME280;64406;50.024;14.492;2023-03-31T15:58:58;96346.34;;;9.01;77.35
75788;BME280;64406;50.024;14.492;2023-03-31T16:01:31;96341.59;;;8.98;75.32
75788;BME280;64406;50.024;14.492;2023-03-31T16:04:00;96346.16;;;8.80;76.91
75788;BME280;64406;50.024;14.492;2023-03-31T16:06:35;96349.00;;;8.35;78.54
75788;BME280;64406;50.024;14.492;2023-03-31T16:09:07;96344.84;;;8.21;78.04
75788;BME280;64406;50.024;14.492;2023-03-31T16:11:38;96348.41;;;8.07;78.67
75788;BME280;64406;50.024;14.492;2023-03-31T16:14:20;96354.44;;;8.13;79.09
75788;BME280;64406;50.024;14.492;2023-03-31T16:16:59;96357.72;;;8.41;77.72
75788;BME280;64406;50.024;14.492;2023-03-31T16:19:28;96348.19;;;8.35;77.41
75788;BME280;64406;50.024;14.492;2023-03-31T16:21:57;96357.25;;;8.39;78.87